Time;durP1;ratioP1;P1;durP2;ratioP2;P2;SDS_P1;SDS_P2;PMS_P1;PMS_P2;Temp;Humidity;BMP_temperature;BMP_pressure;BME280_temperature;BME280_humidity;BME280_pressure;Samples;Min_cycle;Max_cycle;Signal;HPM_P1;HPM_P2
2021/09/12 00:01:51;;;;;;;14.20;3.78;;;;;;;19.84;60.43;101753.41;10565592;28;20051;-74
2021/09/12 00:06:51;;;;;;;15.20;4.35;;;;;;;19.20;59.90;101609.53;10583110;28;20474;-74
2021/09/12 00:11:51;;;;;;;4.30;2.92;;;;;;;19.81;59.86;101698.09;10564756;28;20028;-74
2021/09/12 00:16:52;;;;;;;10.40;5.28;;;;;;;19.92;60.21;101728.31;10564022;28;20038;-74
2021/09/12 00:21:53;;;;;;;9.02;4.60;;;;;;;19.78;60.70;101726.03;10565798;28;20104;-74
2021/09/12 00:26:53;;;;;;;8.02;3.90;;;;;;;19.33;61.16;101658.75;10564861;28;20085;-75
2021/09/12 00:31:53;;;;;;;5.38;3.53;;;;;;;19.50;61.40;101719.31;10583666;28;20062;-74
2021/09/12 00:36:54;;;;;;;21.33;5.28;;;;;;;19.12;62.05;101665.66;10565670;28;20047;-74
2021/09/12 00:41:54;;;;;;;7.32;3.75;;;;;;;19.26;62.73;101707.44;10582313;28;20036;-75
2021/09/12 00:46:54;;;;;;;3.42;3.15;;;;;;;18.91;62.39;101649.72;10581944;28;20036;-73
2021/09/12 00:51:55;;;;;;;8.07;4.03;;;;;;;19.15;62.62;101702.78;10564796;28;20020;-75
2021/09/12 00:56:55;;;;;;;5.50;4.63;;;;;;;18.75;62.45;101660.28;10571678;28;20031;-73
2021/09/12 01:01:56;;;;;;;4.07;3.72;;;;;;;18.61;62.28;101656.03;10554985;28;20035;-75
2021/09/12 01:06:56;;;;;;;5.55;3.75;;;;;;;18.56;62.37;101666.88;10589825;28;20078;-75
2021/09/12 01:11:57;;;;;;;6.57;4.50;;;;;;;18.02;62.62;101586.38;10572591;28;20102;-74
2021/09/12 01:16:58;;;;;;;20.17;6.20;;;;;;;17.84;62.57;101601.78;10590180;28;20446;-74
2021/09/12 01:22:00;;;;;;;9.68;5.53;;;;;;;18.61;62.95;101710.91;10589062;28;20475;-75
2021/09/12 01:27:00;;;;;;;6.85;4.88;;;;;;;18.53;62.82;101705.72;10554279;28;20036;-73
2021/09/12 01:32:01;;;;;;;12.73;5.50;;;;;;;18.45;63.13;101709.63;10588904;28;20042;-74
2021/09/12 01:37:01;;;;;;;4.57;4.18;;;;;;;18.30;63.39;101703.69;10571046;28;20046;-74
2021/09/12 01:42:02;;;;;;;14.00;5.10;;;;;;;18.19;64.03;101715.41;10589304;28;20140;-74
2021/09/12 01:47:02;;;;;;;7.97;4.70;;;;;;;18.18;63.73;101713.75;10587737;28;20395;-74
2021/09/12 01:52:03;;;;;;;10.13;5.38;;;;;;;17.63;63.56;101613.16;10587648;28;20027;-74
2021/09/12 01:57:04;;;;;;;11.40;6.93;;;;;;;18.10;64.00;101712.16;10568626;28;20103;-74
2021/09/12 02:02:05;;;;;;;16.08;7.25;;;;;;;17.04;63.74;101519.63;10587295;28;20088;-74
2021/09/12 02:07:05;;;;;;;21.77;7.72;;;;;;;17.81;63.50;101669.91;10587166;28;20071;-74
2021/09/12 02:12:06;;;;;;;10.60;7.15;;;;;;;16.85;63.93;101512.44;10587069;28;20053;-74
2021/09/12 02:17:06;;;;;;;18.05;7.90;;;;;;;17.16;64.78;101578.00;10568686;28;20038;-74
2021/09/12 02:22:07;;;;;;;13.75;8.57;;;;;;;16.81;64.05;101531.16;10586499;28;20077;-74
2021/09/12 02:27:08;;;;;;;13.82;9.15;;;;;;;17.57;64.31;101677.88;10550780;28;20409;-75
2021/09/12 02:32:09;;;;;;;19.90;9.57;;;;;;;17.83;64.85;101711.59;10568256;28;20516;-74
2021/09/12 02:37:09;;;;;;;18.80;8.93;;;;;;;17.65;64.62;101672.13;10586160;28;20089;-74
2021/09/12 02:42:10;;;;;;;18.85;10.80;;;;;;;17.74;64.66;101712.91;10568047;28;20411;-74
2021/09/12 02:47:10;;;;;;;20.63;10.07;;;;;;;17.48;65.03;101661.97;10586763;28;20116;-74
2021/09/12 02:52:11;;;;;;;14.90;9.88;;;;;;;17.69;64.86;101669.75;10586074;28;20056;-74
2021/09/12 02:57:11;;;;;;;21.92;11.95;;;;;;;18.07;64.77;101698.91;10584678;28;20071;-74
2021/09/12 03:02:11;;;;;;;29.80;10.27;;;;;;;17.59;64.37;101620.16;10586607;28;20429;-74
2021/09/12 03:07:12;;;;;;;16.77;11.20;;;;;;;18.04;64.72;101674.69;10568712;28;20395;-74
2021/09/12 03:12:12;;;;;;;19.40;10.55;;;;;;;18.41;64.55;101710.31;10586178;28;20035;-75
2021/09/12 03:17:13;;;;;;;17.38;12.18;;;;;;;17.51;64.96;101558.28;10567507;28;20027;-74
2021/09/12 03:22:13;;;;;;;16.13;10.38;;;;;;;18.48;64.65;101687.22;10585471;28;20124;-74
2021/09/12 03:27:13;;;;;;;17.75;10.80;;;;;;;18.73;64.29;101703.59;10585241;28;20067;-74
2021/09/12 03:32:14;;;;;;;25.25;10.23;;;;;;;18.85;64.40;101702.78;10567018;28;20392;-75
2021/09/12 03:37:14;;;;;;;29.65;10.82;;;;;;;18.96;63.97;101710.25;10584298;28;20046;-75
2021/09/12 03:42:15;;;;;;;17.83;10.20;;;;;;;18.70;63.92;101664.78;10584188;28;20122;-75
2021/09/12 03:47:15;;;;;;;24.75;12.75;;;;;;;19.05;63.97;101714.34;10583688;28;20459;-73
2021/09/12 03:52:15;;;;;;;13.40;10.02;;;;;;;19.24;63.93;101721.44;10582892;28;20048;-74
2021/09/12 03:57:16;;;;;;;27.70;12.20;;;;;;;18.31;63.92;101568.28;10582410;28;20036;-75
2021/09/12 04:02:16;;;;;;;36.30;13.73;;;;;;;19.23;63.72;101714.25;10565416;28;20508;-74
2021/09/12 04:07:17;;;;;;;22.25;11.98;;;;;;;18.97;64.11;101711.91;10565833;28;20038;-74
2021/09/12 04:12:17;;;;;;;30.25;12.05;;;;;;;18.78;64.06;101705.63;10582261;28;20470;-74
2021/09/12 04:17:17;;;;;;;20.48;12.80;;;;;;;18.63;64.26;101703.25;10584195;28;20070;-75
2021/09/12 04:22:18;;;;;;;21.85;12.05;;;;;;;18.47;64.87;101710.22;10583837;28;20040;-74
2021/09/12 04:27:18;;;;;;;23.27;12.75;;;;;;;18.47;64.85;101701.16;10582937;28;20039;-75
2021/09/12 04:32:19;;;;;;;25.77;13.38;;;;;;;17.68;65.16;101599.63;10565877;28;20485;-74
2021/09/12 04:37:19;;;;;;;27.92;12.10;;;;;;;18.31;64.73;101703.47;10565740;28;20039;-74
2021/09/12 04:42:19;;;;;;;31.00;14.77;;;;;;;17.65;64.70;101603.66;10583328;28;20158;-75
2021/09/12 04:47:20;;;;;;;32.75;13.25;;;;;;;18.16;65.63;101704.94;10546718;28;20093;-74
2021/09/12 04:52:20;;;;;;;19.48;12.18;;;;;;;17.02;65.65;101507.22;10582084;28;20132;-74
2021/09/12 04:57:21;;;;;;;32.40;16.90;;;;;;;18.15;65.68;101684.03;10563295;28;20407;-74
2021/09/12 05:02:21;;;;;;;38.55;16.00;;;;;;;18.57;66.03;101698.72;10582377;28;20039;-74
2021/09/12 05:07:21;;;;;;;30.20;14.85;;;;;;;18.55;66.06;101695.38;10581111;28;20391;-74
2021/09/12 05:12:22;;;;;;;27.05;14.43;;;;;;;18.56;65.44;101699.78;10581345;28;20459;-74
2021/09/12 05:17:22;;;;;;;27.80;13.80;;;;;;;18.58;65.70;101711.38;10563747;28;20395;-74
2021/09/12 05:22:23;;;;;;;19.05;14.05;;;;;;;18.53;65.77;101711.22;10582049;28;20032;-75
2021/09/12 05:27:23;;;;;;;40.17;15.52;;;;;;;18.30;65.40;101668.88;10563650;28;20036;-74
2021/09/12 05:32:23;;;;;;;27.60;14.93;;;;;;;18.39;65.61;101676.81;10564084;28;20054;-74
2021/09/12 05:37:24;;;;;;;36.10;16.38;;;;;;;18.48;66.55;101675.44;10565078;28;20035;-75
2021/09/12 05:42:24;;;;;;;29.05;14.35;;;;;;;18.63;66.04;101718.88;10589357;28;20036;-74
2021/09/12 05:47:25;;;;;;;24.90;13.38;;;;;;;18.00;66.53;101588.53;10589472;28;20036;-75
2021/09/12 05:52:25;;;;;;;26.10;15.00;;;;;;;18.11;65.58;101602.28;10587898;28;20052;-74
2021/09/12 05:57:25;;;;;;;25.90;16.25;;;;;;;17.92;65.99;101558.69;10568246;28;20141;-75
2021/09/12 06:02:26;;;;;;;23.92;14.73;;;;;;;19.07;65.27;101734.13;10587783;28;20032;-75
2021/09/12 06:07:26;;;;;;;25.30;14.90;;;;;;;19.23;65.31;101725.22;10521972;28;20071;-75
2021/09/12 06:12:26;;;;;;;21.50;13.90;;;;;;;19.13;65.55;101700.25;10587911;28;20028;-75
2021/09/12 06:17:27;;;;;;;27.75;15.43;;;;;;;19.49;64.85;101731.38;10568917;28;20047;-74
2021/09/12 06:22:27;;;;;;;23.80;14.82;;;;;;;19.54;65.04;101722.44;10587108;28;20399;-73
2021/09/12 06:27:28;;;;;;;27.27;14.32;;;;;;;19.64;65.25;101725.44;10585665;28;20039;-74
2021/09/12 06:32:28;;;;;;;27.80;13.85;;;;;;;19.65;65.13;101716.97;10587926;28;20492;-74
2021/09/12 06:37:28;;;;;;;29.10;17.63;;;;;;;19.49;64.62;101668.19;10588658;28;20047;-74
2021/09/12 06:42:29;;;;;;;27.23;16.85;;;;;;;19.91;65.18;101737.66;10587602;28;20448;-74
2021/09/12 06:47:29;;;;;;;29.80;19.17;;;;;;;19.93;64.40;101701.66;10569751;28;20097;-74
2021/09/12 06:52:30;;;;;;;24.17;16.50;;;;;;;20.03;64.39;101696.38;10550202;28;20055;-75
2021/09/12 06:57:30;;;;;;;34.28;18.70;;;;;;;20.59;64.16;101749.06;10586374;28;20048;-75
2021/09/12 07:02:30;;;;;;;51.03;19.98;;;;;;;20.56;63.49;101706.34;10568825;28;20040;-74
2021/09/12 07:07:31;;;;;;;35.83;18.25;;;;;;;20.78;63.68;101735.97;10586611;28;20165;-74
2021/09/12 07:12:31;;;;;;;36.95;18.40;;;;;;;20.94;63.21;101737.91;10568543;28;20391;-74
2021/09/12 07:17:31;;;;;;;32.80;17.90;;;;;;;20.85;62.80;101701.69;10585351;28;20113;-75
2021/09/12 07:22:32;;;;;;;42.25;19.85;;;;;;;21.23;62.24;101721.38;10585946;28;20034;-74
2021/09/12 07:27:32;;;;;;;27.60;17.38;;;;;;;21.58;61.96;101749.53;10583356;28;20043;-76
2021/09/12 07:32:33;;;;;;;38.35;19.25;;;;;;;20.90;61.86;101632.13;10584140;28;20059;-75
2021/09/12 07:37:33;;;;;;;23.00;16.95;;;;;;;21.47;61.86;101730.34;10585167;28;20049;-79
2021/09/12 07:42:34;;;;;;;41.05;19.85;;;;;;;20.80;61.81;101623.66;10585654;28;20416;-76
2021/09/12 07:47:34;;;;;;;41.97;20.67;;;;;;;22.04;61.67;101769.56;10569520;28;20028;-78
2021/09/12 07:52:36;;;;;;;44.85;20.73;;;;;;;22.67;60.54;101769.34;10565116;28;20052;-79
2021/09/12 07:57:36;;;;;;;36.38;20.38;;;;;;;23.54;58.87;101776.63;10564185;28;20042;-74
2021/09/12 08:02:36;;;;;;;33.45;20.70;;;;;;;23.51;58.70;101777.16;10564877;28;20368;-75
2021/09/12 08:07:37;;;;;;;30.45;19.27;;;;;;;23.76;57.97;101790.38;10582802;28;20067;-77
2021/09/12 08:12:37;;;;;;;51.92;18.35;;;;;;;23.60;57.94;101770.03;10564303;28;20066;-77
2021/09/12 08:17:38;;;;;;;37.78;20.13;;;;;;;22.92;57.60;101647.28;10584083;28;20027;-75
2021/09/12 08:22:38;;;;;;;39.60;18.55;;;;;;;23.46;56.61;101687.84;10565131;28;20040;-74
2021/09/12 08:27:38;;;;;;;36.95;19.88;;;;;;;24.25;56.19;101790.19;10565024;28;20027;-75
2021/09/12 08:32:39;;;;;;;42.00;17.83;;;;;;;24.59;56.02;101795.38;10583612;28;20036;-75
2021/09/12 08:37:39;;;;;;;24.10;15.43;;;;;;;25.11;54.64;101802.78;10514054;28;20411;-75
2021/09/12 08:42:43;;;;;;;34.15;18.45;;;;;;;25.24;54.52;101768.19;10582786;28;20035;-75
2021/09/12 08:47:43;;;;;;;18.85;14.95;;;;;;;24.54;55.09;101770.44;10564725;28;20458;-75
2021/09/12 08:52:44;;;;;;;24.30;15.68;;;;;;;24.46;55.22;101769.00;10564509;28;20054;-75
2021/09/12 08:57:49;;;;;;;25.30;15.85;;;;;;;24.96;55.49;101798.00;10565600;28;20031;-75
2021/09/12 09:02:50;;;;;;;22.10;15.10;;;;;;;26.42;52.61;101828.06;10564140;28;20433;-75
2021/09/12 09:07:50;;;;;;;18.23;15.68;;;;;;;26.60;51.77;101784.16;10564707;28;20036;-76
2021/09/12 09:12:55;;;;;;;18.95;12.82;;;;;;;26.97;51.15;101811.50;10549022;28;20096;-75
2021/09/12 09:17:57;;;;;;;12.75;11.40;;;;;;;27.44;49.84;101767.53;10590842;28;20089;-75
2021/09/12 09:22:57;;;;;;;14.48;10.27;;;;;;;27.29;48.95;101680.34;10589983;28;20120;-76
2021/09/12 09:28:02;;;;;;;20.85;9.40;;;;;;;28.25;48.72;101810.53;10571538;28;20055;-76
2021/09/12 09:33:12;;;;;;;10.88;8.00;;;;;;;28.12;49.68;101803.72;10571659;28;20023;-75
2021/09/12 09:38:12;;;;;;;9.50;8.07;;;;;;;27.91;48.77;101772.44;10571400;28;20066;-75
2021/09/12 09:43:16;;;;;;;17.35;7.05;;;;;;;27.70;49.08;101805.19;10570938;28;20116;-76
2021/09/12 09:48:16;;;;;;;12.30;6.15;;;;;;;27.67;49.31;101802.16;10588751;28;20027;-74
2021/09/12 09:53:17;;;;;;;3.92;3.65;;;;;;;27.96;48.53;101810.56;10570182;28;20488;-76
2021/09/12 09:58:17;;;;;;;2.75;2.55;;;;;;;27.35;47.60;101686.69;10570341;28;20096;-76
2021/09/12 10:03:19;;;;;;;4.07;2.65;;;;;;;28.49;46.88;101805.84;10588282;28;20059;-75
2021/09/12 10:08:19;;;;;;;1.58;1.48;;;;;;;29.23;45.03;101810.19;10587568;28;20135;-76
2021/09/12 10:13:21;;;;;;;2.83;1.75;;;;;;;28.69;43.79;101712.78;10588416;28;20127;-76
2021/09/12 10:18:27;;;;;;;1.83;1.73;;;;;;;29.18;45.34;101830.63;10537032;28;20418;-76
2021/09/12 10:23:28;;;;;;;1.95;1.42;;;;;;;29.38;43.49;101813.56;10553430;28;20425;-75
2021/09/12 10:28:29;;;;;;;1.88;1.50;;;;;;;29.78;42.15;101814.09;10586194;28;20100;-75
2021/09/12 10:33:30;;;;;;;3.30;1.33;;;;;;;30.85;41.51;101814.00;10586873;28;20076;-76
2021/09/12 10:38:40;;;;;;;1.67;1.58;;;;;;;31.96;40.72;101806.91;10586848;28;20047;-76
2021/09/12 10:43:42;;;;;;;1.38;1.27;;;;;;;31.82;37.97;101670.88;10568898;28;20114;-75
2021/09/12 10:48:51;;;;;;;1.35;1.25;;;;;;;32.87;36.08;101808.28;10585904;28;20421;-76
2021/09/12 10:53:55;;;;;;;1.13;1.10;;;;;;;33.09;36.50;101837.41;10586178;28;20126;-76
2021/09/12 10:58:58;;;;;;;2.05;1.70;;;;;;;32.44;36.56;101703.59;10584782;28;20190;-76
2021/09/12 11:03:59;;;;;;;1.75;1.65;;;;;;;33.41;34.37;101807.16;10586240;28;20059;-75
2021/09/12 11:09:02;;;;;;;1.27;1.23;;;;;;;33.51;35.87;101767.56;10585763;28;20051;-76
2021/09/12 11:14:05;;;;;;;1.88;0.90;;;;;;;33.76;34.05;101817.25;10585242;28;20031;-75
2021/09/12 11:19:05;;;;;;;1.00;1.00;;;;;;;33.93;33.66;101793.91;10584467;28;20042;-76
2021/09/12 11:24:18;;;;;;;4.95;3.15;;;;;;;34.32;34.49;101808.00;10566820;28;20040;-76
2021/09/12 11:29:29;;;;;;;2.30;1.60;;;;;;;34.62;34.26;101859.50;10582934;28;20409;-76
2021/09/12 11:34:30;;;;;;;1.48;1.48;;;;;;;33.93;31.78;101812.75;10565549;28;20023;-76
2021/09/12 11:39:33;;;;;;;1.67;1.50;;;;;;;33.27;33.04;101690.25;10565769;28;20092;-76
2021/09/12 11:44:41;;;;;;;1.17;1.13;;;;;;;33.73;32.72;101781.41;10565265;28;20398;-76
2021/09/12 11:49:42;;;;;;;0.75;0.75;;;;;;;31.93;33.52;101695.47;10583099;28;20040;-76
2021/09/12 11:54:43;;;;;;;2.72;1.08;;;;;;;31.69;35.23;101812.66;10582926;28;20065;-76
2021/09/12 11:59:45;;;;;;;1.47;1.37;;;;;;;30.11;35.87;101629.69;10582025;28;20035;-76
2021/09/12 12:04:46;;;;;;;1.67;1.58;;;;;;;30.46;35.42;101789.38;10564656;28;20341;-76
2021/09/12 12:09:47;;;;;;;4.43;1.20;;;;;;;28.27;35.78;101483.25;10547567;28;20085;-76
2021/09/12 12:15:00;;;;;;;1.30;1.20;;;;;;;29.70;37.32;101763.69;10582330;28;20084;-76
2021/09/12 12:20:01;;;;;;;2.50;1.15;;;;;;;30.20;35.34;101831.78;10582292;28;20044;-76
2021/09/12 12:25:01;;;;;;;0.93;0.93;;;;;;;29.14;35.38;101684.53;10583114;28;20112;-76
2021/09/12 12:30:04;;;;;;;2.22;0.93;;;;;;;30.10;35.14;101799.25;10564131;28;20114;-75
2021/09/12 12:35:17;;;;;;;1.42;1.30;;;;;;;30.68;36.78;101800.66;10582211;28;20036;-75
2021/09/12 12:40:22;;;;;;;3.33;1.77;;;;;;;31.49;34.65;101833.56;10547928;28;20383;-76
2021/09/12 12:45:35;;;;;;;0.90;0.90;;;;;;;30.74;34.90;101608.44;10582263;28;20046;-76
2021/09/12 12:50:44;;;;;;;0.90;0.90;;;;;;;31.73;33.57;101780.88;10590205;28;20463;-76
2021/09/12 12:55:45;;;;;;;1.70;1.50;;;;;;;31.41;33.78;101736.38;10573477;28;20055;-76
2021/09/12 13:00:50;;;;;;;0.95;0.80;;;;;;;31.76;32.43;101711.38;10590871;28;20036;-75
2021/09/12 13:05:50;;;;;;;0.77;0.77;;;;;;;32.31;32.15;101797.84;10556415;28;20459;-76
2021/09/12 13:10:51;;;;;;;3.40;1.45;;;;;;;32.37;33.29;101751.69;10572329;28;20040;-76
2021/09/12 13:15:51;;;;;;;1.38;1.25;;;;;;;32.46;32.52;101799.44;10573116;28;20467;-76
2021/09/12 13:20:52;;;;;;;1.00;0.90;;;;;;;30.98;32.48;101602.53;10572198;28;20467;-76
2021/09/12 13:25:53;;;;;;;1.30;1.20;;;;;;;32.42;33.10;101828.06;10590184;28;20038;-74
2021/09/12 13:30:54;;;;;;;4.53;1.30;;;;;;;32.31;32.18;101815.47;10587909;28;20403;-76
2021/09/12 13:35:54;;;;;;;1.17;1.02;;;;;;;31.33;33.45;101793.91;10570167;28;20072;-76
2021/09/12 13:40:54;;;;;;;1.38;1.25;;;;;;;30.64;34.80;101826.75;10570112;28;20085;-76
2021/09/12 13:45:55;;;;;;;1.40;1.20;;;;;;;30.09;34.95;101830.31;10588013;28;20386;-76
2021/09/12 13:50:55;;;;;;;1.25;1.15;;;;;;;28.84;36.51;101719.25;10588301;28;20032;-75
2021/09/12 13:55:56;;;;;;;4.50;1.20;;;;;;;28.74;37.03;101837.31;10588234;28;20193;-76
2021/09/12 14:00:56;;;;;;;1.75;1.65;;;;;;;28.41;37.69;101839.09;10586389;28;20036;-75
2021/09/12 14:05:56;;;;;;;2.10;1.27;;;;;;;27.81;38.11;101836.56;10587924;28;20043;-76
2021/09/12 14:10:58;;;;;;;1.30;1.20;;;;;;;27.51;38.80;101798.66;10587335;28;20028;-76
2021/09/12 14:15:59;;;;;;;7.13;2.10;;;;;;;26.96;39.72;101807.03;10587269;28;20038;-75
2021/09/12 14:20:59;;;;;;;2.10;1.75;;;;;;;26.80;40.26;101839.66;10569146;28;20027;-75
2021/09/12 14:26:00;;;;;;;2.10;2.00;;;;;;;26.67;40.52;101845.78;10586596;28;20053;-75
2021/09/12 14:31:00;;;;;;;2.50;2.22;;;;;;;26.79;40.56;101839.91;10567214;28;20375;-75
2021/09/12 14:36:00;;;;;;;1.23;1.13;;;;;;;26.12;40.42;101742.06;10585638;28;20039;-76
2021/09/12 14:41:01;;;;;;;3.08;2.08;;;;;;;26.82;40.34;101806.00;10585685;28;20459;-75
2021/09/12 14:46:01;;;;;;;1.63;1.50;;;;;;;26.63;39.88;101812.19;10567283;28;20050;-76
2021/09/12 14:51:02;;;;;;;2.05;1.75;;;;;;;26.67;40.09;101832.75;10585601;28;20036;-75
2021/09/12 14:56:03;;;;;;;1.63;1.52;;;;;;;25.56;40.28;101751.28;10585123;28;20140;-75
2021/09/12 15:01:03;;;;;;;3.47;1.90;;;;;;;25.56;41.42;101831.72;10584915;28;20117;-75
2021/09/12 15:06:05;;;;;;;1.80;1.70;;;;;;;25.11;42.48;101832.41;10584898;28;20039;-75
2021/09/12 15:11:05;;;;;;;2.28;1.55;;;;;;;25.05;42.93;101837.13;10566026;28;20032;-75
2021/09/12 15:16:06;;;;;;;1.48;1.38;;;;;;;25.00;42.71;101845.41;10584856;28;20031;-75
2021/09/12 15:21:06;;;;;;;1.48;1.40;;;;;;;24.94;43.02;101843.72;10585190;28;20027;-75
2021/09/12 15:26:06;;;;;;;2.08;1.58;;;;;;;24.61;43.43;101831.94;10584414;28;20024;-75
2021/09/12 15:31:07;;;;;;;1.70;1.60;;;;;;;24.64;43.52;101841.66;10584850;28;20032;-75
2021/09/12 15:36:07;;;;;;;1.58;1.48;;;;;;;23.44;43.98;101696.38;10583659;28;20074;-75
2021/09/12 15:41:08;;;;;;;1.77;1.35;;;;;;;23.91;44.07;101845.00;10583330;28;20046;-75
2021/09/12 15:46:08;;;;;;;2.17;2.00;;;;;;;21.80;44.54;101544.78;10583608;28;20040;-75
2021/09/12 15:51:08;;;;;;;1.55;1.45;;;;;;;23.22;44.85;101782.13;10583442;28;20024;-75
2021/09/12 15:56:09;;;;;;;2.95;2.13;;;;;;;23.38;45.27;101843.94;10582570;28;20060;-76
2021/09/12 16:01:09;;;;;;;4.20;1.92;;;;;;;23.13;45.93;101845.34;10583319;28;20078;-74
2021/09/12 16:06:10;;;;;;;3.75;1.92;;;;;;;23.00;45.91;101839.34;10582658;28;20471;-75
2021/09/12 16:11:10;;;;;;;2.92;2.15;;;;;;;22.66;46.49;101839.47;10582065;28;20032;-75
2021/09/12 16:16:11;;;;;;;5.93;1.52;;;;;;;22.06;47.13;101774.84;10564209;28;20036;-74
2021/09/12 16:21:11;;;;;;;1.98;1.70;;;;;;;22.39;47.00;101815.34;10565034;28;20039;-75
2021/09/12 16:26:17;;;;;;;1.48;1.33;;;;;;;22.14;47.17;101796.44;10582799;28;20035;-75
2021/09/12 16:31:17;;;;;;;3.88;1.67;;;;;;;22.03;47.39;101809.25;10582867;28;20028;-75
2021/09/12 16:36:17;;;;;;;3.30;1.25;;;;;;;21.44;47.27;101731.69;10583003;28;20043;-75
2021/09/12 16:41:18;;;;;;;2.90;1.80;;;;;;;21.86;47.21;101797.44;10564978;28;20084;-74
2021/09/12 16:51:18;;;;;;;1.85;1.75;;;;;;;21.14;47.47;101719.00;10582316;28;20039;-75
2021/09/12 16:56:19;;;;;;;4.93;1.92;;;;;;;21.57;48.13;101827.00;10582673;28;20093;-75
2021/09/12 17:01:20;;;;;;;3.15;1.67;;;;;;;21.50;48.14;101840.91;10563657;28;20062;-74
2021/09/12 17:06:20;;;;;;;1.38;1.02;;;;;;;21.54;47.94;101846.78;10564097;28;20044;-75
2021/09/12 17:11:21;;;;;;;4.68;2.60;;;;;;;20.59;47.89;101705.03;10581840;28;20151;-75
2021/09/12 17:16:21;;;;;;;7.28;1.50;;;;;;;21.20;48.51;101821.03;10547167;28;20039;-75
2021/09/12 17:21:21;;;;;;;1.52;1.38;;;;;;;21.24;49.01;101847.00;10581478;28;20107;-74
2021/09/12 17:26:22;;;;;;;1.50;1.30;;;;;;;20.31;49.13;101711.28;10563245;28;20035;-75
2021/09/12 17:31:22;;;;;;;1.63;1.52;;;;;;;20.84;49.83;101834.91;10581103;28;20463;-74
2021/09/12 17:36:25;;;;;;;2.08;1.60;;;;;;;20.66;49.96;101838.66;10571661;28;20477;-75
2021/09/12 17:41:25;;;;;;;4.88;1.92;;;;;;;20.70;50.13;101857.44;10588679;28;20061;-75
2021/09/12 17:46:26;;;;;;;3.00;1.42;;;;;;;20.35;50.13;101823.34;10587980;28;20112;-75
2021/09/12 17:51:26;;;;;;;1.92;1.75;;;;;;;20.28;50.36;101852.06;10569734;28;20030;-75
2021/09/12 17:56:27;;;;;;;1.42;1.33;;;;;;;20.09;51.38;101843.91;10587225;28;20079;-75
2021/09/12 18:01:27;;;;;;;1.50;1.33;;;;;;;19.85;50.46;101817.50;10587508;28;20034;-75
2021/09/12 18:06:28;;;;;;;2.78;1.75;;;;;;;18.96;51.14;101711.06;10587800;28;20044;-74
2021/09/12 18:11:28;;;;;;;2.63;1.40;;;;;;;19.74;50.75;101827.38;10570266;28;20061;-74
2021/09/12 18:16:28;;;;;;;2.35;1.75;;;;;;;19.60;51.27;101825.91;10587947;28;20388;-75
2021/09/12 18:21:29;;;;;;;2.47;1.65;;;;;;;19.63;51.63;101861.16;10588803;28;20114;-75
2021/09/12 18:26:29;;;;;;;1.92;1.20;;;;;;;18.29;51.98;101656.25;10569787;28;20040;-74
2021/09/12 18:31:30;;;;;;;4.97;2.08;;;;;;;19.18;52.60;101820.38;10587055;28;20059;-75
2021/09/12 18:36:30;;;;;;;0.95;0.95;;;;;;;18.00;52.33;101637.84;10568074;28;20118;-74
2021/09/12 18:41:30;;;;;;;5.13;2.33;;;;;;;18.79;52.24;101785.00;10586534;28;20052;-74
2021/09/12 18:46:31;;;;;;;2.35;1.80;;;;;;;19.20;52.25;101865.72;10568121;28;20039;-75
2021/09/12 18:51:31;;;;;;;6.03;2.88;;;;;;;19.11;52.25;101877.28;10568065;28;20063;-74
2021/09/12 18:56:32;;;;;;;2.28;2.00;;;;;;;19.05;52.26;101884.53;10584601;28;20056;-75
2021/09/12 19:01:32;;;;;;;2.65;1.42;;;;;;;18.99;52.17;101880.81;10567279;28;20096;-75
2021/09/12 19:06:33;;;;;;;3.85;2.67;;;;;;;17.93;52.81;101722.84;10585671;28;20117;-75
2021/09/12 19:11:33;;;;;;;2.15;1.23;;;;;;;17.74;52.18;101708.28;10586871;28;20060;-74
2021/09/12 19:16:34;;;;;;;1.67;1.58;;;;;;;18.73;52.69;101878.34;10568364;28;20486;-75
2021/09/12 19:21:35;;;;;;;2.83;2.13;;;;;;;18.74;53.09;101889.09;10586117;28;20027;-74
2021/09/12 19:26:35;;;;;;;5.85;2.55;;;;;;;18.70;52.97;101892.50;10566645;28;20039;-75
2021/09/12 19:31:36;;;;;;;7.35;2.50;;;;;;;18.26;52.95;101842.31;10584027;28;20130;-75
2021/09/12 19:36:36;;;;;;;2.20;1.88;;;;;;;18.34;53.50;101861.19;10584237;28;20040;-74
2021/09/12 19:41:37;;;;;;;5.32;2.05;;;;;;;17.50;53.45;101729.13;10583918;28;20077;-75
2021/09/12 19:46:37;;;;;;;2.13;1.50;;;;;;;18.50;53.73;101928.34;10564800;28;20079;-76
2021/09/12 19:51:37;;;;;;;2.63;1.85;;;;;;;18.49;53.82;101908.31;10565096;28;20077;-76
2021/09/12 19:56:38;;;;;;;3.10;2.00;;;;;;;17.62;53.51;101787.59;10582110;28;20059;-77
2021/09/12 20:01:38;;;;;;;5.97;2.08;;;;;;;17.19;54.02;101717.16;10565035;28;20505;-76
2021/09/12 20:06:39;;;;;;;2.45;1.90;;;;;;;17.62;53.76;101803.22;10583816;28;20467;-77
2021/09/12 20:11:39;;;;;;;6.25;3.00;;;;;;;18.41;53.82;101925.09;10582463;28;20059;-77
2021/09/12 20:16:40;;;;;;;2.40;1.70;;;;;;;18.38;53.93;101930.16;10564055;28;20082;-77
2021/09/12 20:21:40;;;;;;;1.77;1.67;;;;;;;18.32;53.73;101943.72;10582026;28;20045;-77
2021/09/12 20:26:43;;;;;;;10.65;2.40;;;;;;;18.29;54.44;101938.66;10563160;28;20119;-77
2021/09/12 20:31:44;;;;;;;1.90;1.80;;;;;;;18.24;54.04;101922.03;10582176;28;20032;-76
2021/09/12 20:36:44;;;;;;;4.80;2.33;;;;;;;18.22;54.29;101940.63;10581789;28;20036;-78
2021/09/12 20:41:44;;;;;;;5.28;3.13;;;;;;;17.79;54.26;101866.53;10581840;28;20488;-77
2021/09/12 20:46:45;;;;;;;5.68;2.30;;;;;;;18.13;54.46;101936.47;10581376;28;20371;-77
2021/09/12 20:51:45;;;;;;;2.10;1.95;;;;;;;17.93;54.63;101922.91;10563388;28;20031;-77
2021/09/12 20:56:46;;;;;;;6.07;2.67;;;;;;;17.89;54.98;101913.47;10562124;28;20104;-76
2021/09/12 21:01:46;;;;;;;6.40;2.92;;;;;;;18.01;55.19;101939.09;10563005;28;20040;-77
2021/09/12 21:06:46;;;;;;;5.95;2.58;;;;;;;17.94;54.86;101926.50;10582121;28;20039;-77
2021/09/12 21:11:47;;;;;;;2.15;2.05;;;;;;;17.91;55.42;101933.25;10588690;28;20080;-76
2021/09/12 21:16:47;;;;;;;4.60;2.63;;;;;;;17.51;55.01;101878.69;10592433;28;20019;-76
2021/09/12 21:21:48;;;;;;;8.15;2.58;;;;;;;17.79;55.36;101932.28;10573768;28;20027;-77
2021/09/12 21:26:48;;;;;;;2.50;1.83;;;;;;;17.84;54.97;101940.69;10590295;28;20039;-77
2021/09/12 21:31:49;;;;;;;3.60;2.35;;;;;;;17.83;55.39;101952.69;10590224;28;20023;-77
2021/09/12 21:36:49;;;;;;;3.58;3.15;;;;;;;17.61;55.27;101925.63;10591130;28;20126;-77
2021/09/12 21:41:50;;;;;;;3.15;2.88;;;;;;;17.63;55.51;101939.09;10589492;28;20575;-76
2021/09/12 21:46:50;;;;;;;5.22;2.83;;;;;;;17.59;55.71;101960.59;10589940;28;20043;-76
2021/09/12 21:51:50;;;;;;;4.78;3.92;;;;;;;17.63;55.69;101966.47;10572140;28;20056;-77
2021/09/12 21:56:51;;;;;;;12.68;2.88;;;;;;;17.46;55.88;101948.88;10570701;28;20060;-75
2021/09/12 22:01:51;;;;;;;3.08;2.88;;;;;;;17.53;56.17;101960.63;10570988;28;20046;-76
2021/09/12 22:06:52;;;;;;;3.35;2.20;;;;;;;17.24;56.78;101935.47;10590972;28;20481;-76
2021/09/12 22:11:52;;;;;;;5.95;4.25;;;;;;;17.39;56.72;101944.28;10590627;28;20028;-76
2021/09/12 22:16:52;;;;;;;9.18;3.00;;;;;;;17.52;56.56;101967.19;10589131;28;20076;-76
2021/09/12 22:21:53;;;;;;;7.38;3.80;;;;;;;17.54;57.57;101967.78;10587366;28;20036;-76
2021/09/12 22:26:53;;;;;;;6.20;2.88;;;;;;;17.55;56.93;101961.25;10586514;28;20440;-76
2021/09/12 22:31:54;;;;;;;4.20;2.70;;;;;;;17.37;56.82;101938.16;10588373;28;20031;-76
2021/09/12 22:36:54;;;;;;;4.03;2.95;;;;;;;17.35;57.25;101940.25;10587994;28;20039;-76
2021/09/12 22:41:54;;;;;;;4.78;2.70;;;;;;;15.93;56.86;101704.03;10587773;28;20032;-76
2021/09/12 22:46:55;;;;;;;4.05;2.70;;;;;;;17.41;56.73;101949.53;10587359;28;20062;-77
2021/09/12 22:51:55;;;;;;;6.95;2.30;;;;;;;17.47;56.74;101962.34;10586055;28;20031;-76
2021/09/12 22:56:55;;;;;;;5.07;3.60;;;;;;;17.41;56.89;101963.22;10566954;28;20139;-76